createdAt,value
2022-11-01T00:01:36.738Z,72.70
2022-11-01T00:04:06.023Z,66.30
2022-11-01T00:06:33.823Z,84.20
2022-11-01T00:09:01.621Z,76.20
2022-11-01T00:11:29.521Z,80.50
2022-11-01T00:13:57.315Z,90.30
2022-11-01T00:16:25.131Z,79.20
2022-11-01T00:18:52.941Z,81.30
2022-11-01T00:21:22.107Z,90.50
2022-11-01T00:23:49.942Z,91.40
2022-11-01T00:26:18.341Z,81.90
2022-11-01T00:28:46.546Z,73.30
2022-11-01T00:31:14.819Z,85.60
2022-11-01T00:33:42.664Z,90.40
2022-11-01T00:36:10.898Z,90.40
2022-11-01T00:38:40.363Z,82.40
2022-11-01T00:41:08.508Z,92.60
2022-11-01T00:43:36.787Z,99.90
2022-11-01T00:46:05.095Z,97.10
2022-11-01T00:48:32.981Z,81.00
2022-11-01T00:51:00.794Z,88.20
2022-11-01T00:53:28.599Z,87.20
2022-11-01T00:56:02.348Z,94.00
2022-11-01T00:58:30.240Z,78.90
2022-11-01T01:00:58.128Z,91.00
2022-11-01T01:03:26.003Z,83.40
2022-11-01T01:05:54.289Z,79.40
2022-11-01T01:08:22.718Z,51.50
2022-11-01T01:10:50.772Z,57.10
2022-11-01T01:13:19.924Z,59.20
2022-11-01T01:15:48.201Z,47.70
2022-11-01T01:18:17.234Z,52.20
2022-11-01T01:20:45.131Z,49.10
2022-11-01T01:23:12.949Z,35.80
2022-11-01T01:25:41.259Z,49.00
2022-11-01T01:28:09.101Z,38.50
2022-11-01T01:30:40.298Z,16.40
2022-11-01T01:33:08.141Z,19.40
2022-11-01T01:35:36.007Z,21.10
2022-11-01T01:38:04.135Z,1.00
2022-11-01T01:40:32.640Z,1.00
2022-11-01T01:43:00.474Z,1.00
2022-11-01T01:45:33.178Z,1.00
2022-11-01T01:48:07.851Z,1.00
2022-11-01T01:50:37.631Z,1.00
2022-11-01T01:53:06.756Z,1.00
2022-11-01T01:55:38.938Z,1.00
2022-11-01T01:58:07.942Z,1.00
2022-11-01T02:00:35.877Z,1.00
2022-11-01T02:03:05.210Z,1.00
2022-11-01T02:05:37.370Z,1.00
2022-11-01T02:08:07.004Z,1.00
2022-11-01T02:10:35.450Z,1.00
2022-11-01T02:13:03.266Z,1.00
2022-11-01T02:15:34.998Z,1.00
2022-11-01T02:18:15.975Z,99.90
2022-11-01T02:21:10.859Z,99.90
2022-11-01T02:24:11.597Z,99.90
2022-11-01T02:26:50.873Z,99.90
2022-11-01T02:29:25.260Z,99.90
2022-11-01T02:32:02.192Z,87.40
2022-11-01T02:34:32.246Z,1.00
2022-11-01T02:37:01.657Z,1.00
2022-11-01T02:39:32.755Z,1.00
2022-11-01T02:42:04.287Z,41.10
2022-11-01T02:44:34.924Z,38.30
2022-11-01T02:47:05.050Z,1.00
2022-11-01T02:49:35.049Z,99.90
2022-11-01T02:52:03.534Z,1.00
2022-11-01T02:54:33.275Z,1.00
2022-11-01T02:57:03.447Z,99.90
2022-11-01T02:59:31.242Z,99.90
2022-11-01T03:02:02.290Z,1.00
2022-11-01T03:04:31.736Z,99.90
2022-11-01T03:07:00.687Z,1.00
2022-11-01T03:09:28.983Z,99.90
2022-11-01T03:12:01.866Z,1.00
2022-11-01T03:14:33.136Z,99.90
2022-11-01T03:17:01.507Z,1.00
2022-11-01T03:19:35.214Z,99.90
2022-11-01T03:22:07.125Z,1.00
2022-11-01T03:24:37.401Z,1.00
2022-11-01T03:27:06.549Z,99.90
2022-11-01T03:29:36.745Z,1.00
2022-11-01T03:32:05.047Z,1.00
2022-11-01T03:34:35.459Z,1.00
2022-11-01T03:37:05.457Z,1.00
2022-11-01T03:39:35.054Z,1.00
2022-11-01T03:42:05.109Z,1.00
2022-11-01T03:44:34.710Z,1.00
2022-11-01T03:47:03.256Z,75.00
2022-11-01T03:49:31.090Z,99.90
2022-11-01T03:52:00.318Z,99.90
2022-11-01T03:54:29.208Z,99.90
2022-11-01T03:56:57.139Z,1.00
2022-11-01T03:59:25.061Z,1.00
2022-11-01T04:01:53.258Z,25.40
2022-11-01T04:04:21.253Z,80.20
2022-11-01T04:06:49.049Z,99.90
2022-11-01T04:09:18.206Z,93.40
2022-11-01T04:11:46.011Z,99.90
2022-11-01T04:14:31.180Z,99.90
2022-11-01T04:17:16.374Z,1.00
2022-11-01T04:20:01.450Z,1.00
2022-11-01T04:22:29.246Z,21.80
2022-11-01T04:24:58.410Z,99.90
2022-11-01T04:27:26.207Z,99.90
2022-11-01T04:29:54.000Z,99.90
2022-11-01T04:32:21.818Z,1.00
2022-11-01T04:34:49.619Z,1.00
2022-11-01T04:37:17.459Z,99.90
2022-11-01T04:39:45.291Z,99.90
2022-11-01T04:42:14.460Z,99.90
2022-11-01T04:44:42.262Z,99.90
2022-11-01T04:47:10.058Z,1.00
2022-11-01T04:49:37.875Z,1.00
2022-11-01T04:52:05.733Z,1.00
2022-11-01T04:54:33.734Z,1.00
2022-11-01T04:57:01.616Z,1.00
2022-11-01T04:59:30.795Z,1.00
2022-11-01T05:01:58.649Z,1.00
2022-11-01T05:04:26.550Z,1.00
2022-11-01T05:06:54.384Z,99.90
2022-11-01T05:09:22.166Z,20.30
2022-11-01T05:11:49.995Z,99.90
2022-11-01T05:14:17.807Z,99.90
2022-11-01T05:16:46.946Z,99.90
2022-11-01T05:19:14.753Z,1.00
2022-11-01T05:21:42.612Z,20.80
2022-11-01T05:24:10.391Z,99.90
2022-11-01T05:26:38.193Z,99.90
2022-11-01T05:29:09.027Z,1.00
2022-11-01T05:31:47.605Z,14.80
2022-11-01T05:34:15.451Z,29.10
2022-11-01T05:36:43.272Z,1.00
2022-11-01T05:39:11.218Z,99.90
2022-11-01T05:41:40.510Z,42.40
2022-11-01T05:44:08.325Z,1.00
2022-11-01T05:46:38.740Z,20.70
2022-11-01T05:49:07.890Z,99.90
2022-11-01T05:51:35.719Z,11.30
2022-11-01T05:54:03.573Z,1.00
2022-11-01T05:56:31.382Z,99.90
2022-11-01T05:58:59.196Z,1.00
2022-11-01T06:01:27.085Z,99.90
2022-11-01T06:03:54.926Z,99.90
2022-11-01T06:06:24.112Z,99.90
2022-11-01T06:08:51.918Z,1.00
2022-11-01T06:11:19.737Z,1.00
2022-11-01T06:13:47.531Z,1.00
2022-11-01T06:16:15.367Z,1.00
2022-11-01T06:18:43.198Z,1.00
2022-11-01T06:21:11.294Z,1.00
2022-11-01T06:23:40.519Z,1.00
2022-11-01T06:26:08.424Z,1.00
2022-11-01T06:28:36.255Z,1.00
2022-11-01T06:33:37.215Z,1.00
2022-11-01T06:36:05.581Z,1.00
2022-11-01T06:38:33.418Z,1.00
2022-11-01T06:41:02.560Z,14.10
2022-11-01T06:43:30.332Z,99.90
2022-11-01T06:46:00.224Z,1.00
2022-11-01T06:48:28.210Z,1.00
2022-11-01T06:50:56.736Z,1.00
2022-11-01T06:53:24.805Z,1.00
2022-11-01T06:55:52.960Z,1.00
2022-11-01T06:58:22.231Z,1.00
2022-11-01T07:00:50.228Z,1.00
2022-11-01T07:03:18.287Z,1.00
2022-11-01T07:05:46.175Z,1.00
2022-11-01T07:08:14.285Z,1.00
2022-11-01T07:10:43.102Z,99.90
2022-11-01T07:13:11.866Z,99.90
2022-11-01T07:15:41.205Z,99.90
2022-11-01T07:18:09.390Z,99.90
2022-11-01T07:20:41.969Z,54.80
2022-11-01T07:23:11.608Z,99.90
2022-11-01T07:25:39.460Z,1.00
2022-11-01T07:28:07.313Z,1.00
2022-11-01T07:30:35.097Z,1.00
2022-11-01T07:33:05.341Z,99.90
2022-11-01T07:35:33.640Z,99.90
2022-11-01T07:38:04.025Z,99.90
2022-11-01T07:40:36.383Z,58.90
2022-11-01T07:43:04.899Z,1.80
2022-11-01T07:45:33.563Z,1.00
2022-11-01T07:48:02.779Z,1.00
2022-11-01T07:50:32.899Z,99.90
2022-11-01T07:53:01.409Z,1.00
2022-11-01T07:55:29.687Z,99.90
2022-11-01T07:57:57.498Z,99.90
2022-11-01T08:00:25.415Z,1.00
2022-11-01T08:02:53.260Z,1.00
2022-11-01T08:05:21.122Z,99.90
2022-11-01T08:07:50.251Z,99.90
2022-11-01T08:10:18.116Z,1.00
2022-11-01T08:12:45.925Z,1.00
2022-11-01T08:15:13.761Z,1.00
2022-11-01T08:17:41.621Z,1.00
2022-11-01T08:20:10.013Z,99.90
2022-11-01T08:22:39.665Z,99.90
2022-11-01T08:25:09.214Z,1.00
2022-11-01T08:27:37.032Z,1.00
2022-11-01T08:30:05.155Z,1.00
2022-11-01T08:32:33.034Z,99.90
2022-11-01T08:35:00.831Z,99.90
2022-11-01T08:37:28.683Z,99.90
2022-11-01T08:39:56.485Z,99.90
2022-11-01T08:42:25.668Z,99.90
2022-11-01T08:44:55.818Z,1.00
2022-11-01T08:47:23.655Z,1.00
2022-11-01T08:49:51.510Z,1.00
2022-11-01T08:52:19.338Z,1.00
2022-11-01T08:54:47.182Z,99.90
2022-11-01T08:57:15.988Z,99.90
2022-11-01T08:59:45.176Z,99.90
2022-11-01T09:02:13.411Z,56.70
2022-11-01T09:04:41.319Z,26.50
2022-11-01T09:07:09.213Z,99.90
2022-11-01T09:09:37.006Z,1.00
2022-11-01T09:12:04.878Z,1.00
2022-11-01T09:14:32.757Z,1.00
2022-11-01T09:17:01.945Z,1.00
2022-11-01T09:19:29.808Z,99.90
2022-11-01T09:21:57.643Z,1.00
2022-11-01T09:24:25.470Z,99.90
2022-11-01T09:26:56.695Z,99.90
2022-11-01T09:29:24.542Z,99.90
2022-11-01T09:31:52.955Z,99.90
2022-11-01T09:34:22.981Z,31.30
2022-11-01T09:36:50.818Z,33.20
2022-11-01T09:39:22.038Z,37.50
2022-11-01T09:41:50.870Z,1.00
2022-11-01T09:44:19.806Z,1.00
2022-11-01T09:46:49.513Z,1.00
2022-11-01T09:49:22.085Z,1.00
2022-11-01T09:51:51.586Z,1.00
2022-11-01T09:54:29.173Z,1.00
2022-11-01T09:57:04.729Z,1.00
2022-11-01T09:59:35.403Z,1.00
2022-11-01T10:02:11.322Z,1.00
2022-11-01T10:04:48.852Z,1.00
2022-11-01T10:07:22.137Z,1.00
2022-11-01T10:09:54.608Z,1.00
2022-11-01T10:12:29.096Z,1.00
2022-11-01T10:15:02.802Z,1.00
2022-11-01T10:17:39.773Z,1.00
2022-11-01T10:20:10.299Z,1.00
2022-11-01T10:22:40.331Z,1.00
2022-11-01T10:25:12.684Z,1.00
2022-11-01T10:27:44.095Z,99.90
2022-11-01T10:30:14.063Z,99.90
2022-11-01T10:32:44.030Z,99.90
2022-11-01T10:35:15.277Z,99.90
2022-11-01T10:37:57.563Z,99.90
2022-11-01T10:40:37.054Z,99.90
2022-11-01T10:43:11.651Z,99.90
2022-11-01T10:45:44.917Z,99.90
2022-11-01T10:48:19.500Z,99.90
2022-11-01T10:50:47.695Z,99.90
2022-11-01T10:53:19.693Z,99.90
2022-11-01T10:55:49.810Z,99.90
2022-11-01T10:58:22.034Z,99.90
2022-11-01T11:00:49.972Z,99.90
2022-11-01T11:03:19.860Z,99.90
2022-11-01T11:05:49.077Z,99.90
2022-11-01T11:08:19.458Z,99.90
2022-11-01T11:10:47.681Z,99.90
2022-11-01T11:13:17.629Z,99.90
2022-11-01T11:15:48.297Z,99.90
2022-11-01T11:18:20.596Z,99.90
2022-11-01T11:20:51.555Z,99.90
2022-11-01T11:23:22.598Z,99.90
2022-11-01T11:25:51.616Z,99.90
2022-11-01T11:28:23.072Z,99.90
2022-11-01T11:30:50.987Z,99.90
2022-11-01T11:33:19.505Z,99.90
2022-11-01T11:35:54.589Z,99.90
2022-11-01T11:38:40.434Z,99.90
2022-11-01T11:41:10.068Z,99.90
2022-11-01T11:43:41.106Z,99.90
2022-11-01T11:46:14.755Z,99.90
2022-11-01T11:48:49.387Z,99.90
2022-11-01T11:51:17.413Z,99.90
2022-11-01T11:54:05.480Z,99.90
2022-11-01T11:56:33.402Z,99.90
2022-11-01T11:59:08.229Z,99.90
2022-11-01T12:01:36.754Z,99.90
2022-11-01T12:04:07.225Z,99.90
2022-11-01T12:06:39.027Z,99.90
2022-11-01T12:09:29.174Z,99.90
2022-11-01T12:11:57.061Z,99.90
2022-11-01T12:14:26.207Z,99.90
2022-11-01T12:16:54.137Z,99.90
2022-11-01T12:19:24.456Z,99.90
2022-11-01T12:21:52.566Z,99.90
2022-11-01T12:24:24.503Z,99.90
2022-11-01T12:26:54.637Z,99.90
2022-11-01T12:29:28.001Z,99.90
2022-11-01T12:31:56.751Z,99.90
2022-11-01T12:34:26.604Z,99.90
2022-11-01T12:36:58.174Z,99.90
2022-11-01T12:39:35.061Z,99.90
2022-11-01T12:42:04.898Z,99.90
2022-11-01T12:44:35.341Z,99.90
2022-11-01T12:47:08.652Z,99.90
2022-11-01T12:49:40.821Z,99.90
2022-11-01T12:52:13.102Z,99.90
2022-11-01T12:54:46.033Z,99.90
2022-11-01T12:57:15.309Z,99.90
2022-11-01T12:59:43.909Z,99.90
2022-11-01T13:02:20.780Z,99.90
2022-11-01T13:04:52.134Z,99.90
2022-11-01T13:07:25.002Z,99.90
2022-11-01T13:10:02.728Z,99.90
2022-11-01T13:12:34.016Z,99.90
2022-11-01T13:15:05.031Z,99.90
2022-11-01T13:17:38.334Z,99.90
2022-11-01T13:20:18.907Z,99.90
2022-11-01T13:22:50.047Z,99.90
2022-11-01T13:25:21.564Z,99.90
2022-11-01T13:27:53.242Z,99.90
2022-11-01T13:30:21.496Z,99.90
2022-11-01T13:32:53.884Z,99.90
2022-11-01T13:35:32.789Z,99.90
2022-11-01T13:38:04.417Z,99.90
2022-11-01T13:40:36.950Z,99.90
2022-11-01T13:43:07.274Z,99.90
2022-11-01T13:45:58.701Z,99.90
2022-11-01T13:48:31.368Z,99.90
2022-11-01T13:51:04.364Z,99.90
2022-11-01T13:53:34.018Z,99.90
2022-11-01T13:56:05.514Z,99.90
2022-11-01T13:58:33.778Z,99.90
2022-11-01T14:01:16.588Z,99.90
2022-11-01T14:03:49.590Z,99.90
2022-11-01T14:09:29.628Z,99.90
2022-11-01T14:11:59.790Z,99.90
2022-11-01T14:14:46.210Z,99.90
2022-11-01T14:17:32.793Z,99.90
2022-11-01T14:20:15.470Z,99.90
2022-11-01T14:22:44.970Z,99.90
2022-11-01T14:25:27.640Z,99.90
2022-11-01T14:28:19.328Z,99.90
2022-11-01T14:30:49.636Z,99.90
2022-11-01T14:33:19.257Z,99.90
2022-11-01T14:35:51.687Z,99.90
2022-11-01T14:38:22.372Z,99.90
2022-11-01T14:40:51.513Z,99.90
2022-11-01T14:43:21.627Z,99.90
2022-11-01T14:45:53.726Z,99.90
2022-11-01T14:48:23.722Z,99.90
2022-11-01T14:50:55.008Z,99.90
2022-11-01T14:53:26.397Z,99.90
2022-11-01T14:56:05.626Z,99.90
2022-11-01T14:58:35.139Z,99.90
2022-11-01T15:01:05.732Z,99.90
2022-11-01T15:03:34.308Z,99.90
2022-11-01T15:06:02.103Z,99.90
2022-11-01T15:08:31.249Z,99.90
2022-11-01T15:11:01.018Z,99.90
2022-11-01T15:13:30.272Z,99.90
2022-11-01T15:16:08.448Z,99.90
2022-11-01T15:18:38.308Z,99.90
2022-11-01T15:21:08.009Z,99.90
2022-11-01T15:23:37.077Z,99.90
2022-11-01T15:26:07.234Z,99.90
2022-11-01T15:28:38.793Z,99.90
2022-11-01T15:31:09.918Z,99.90
2022-11-01T15:33:38.206Z,99.90
2022-11-01T15:36:08.772Z,99.90
2022-11-01T15:38:37.516Z,99.90
2022-11-01T15:41:19.780Z,99.90
2022-11-01T15:43:52.160Z,99.90
2022-11-01T15:46:21.479Z,99.90
2022-11-01T15:48:50.730Z,99.90
2022-11-01T15:51:21.171Z,99.90
2022-11-01T15:53:49.420Z,99.90
2022-11-01T15:56:19.546Z,99.90
2022-11-01T15:58:49.795Z,99.90
2022-11-01T16:01:19.224Z,99.90
2022-11-01T16:03:50.156Z,99.90
2022-11-01T16:06:20.635Z,99.90
2022-11-01T16:08:50.761Z,99.90
2022-11-01T16:11:20.902Z,99.90
2022-11-01T16:13:50.250Z,99.90
2022-11-01T16:16:18.116Z,99.90
2022-11-01T16:18:46.246Z,99.90
2022-11-01T16:21:30.864Z,99.90
2022-11-01T16:24:02.817Z,99.90
2022-11-01T16:26:33.352Z,99.90
2022-11-01T16:29:01.543Z,99.90
2022-11-01T16:31:30.825Z,99.90
2022-11-01T16:33:58.816Z,1.00
2022-11-01T16:36:38.941Z,1.00
2022-11-01T16:39:25.157Z,1.00
2022-11-01T16:41:53.309Z,1.00
2022-11-01T16:44:21.386Z,1.00
2022-11-01T16:46:49.295Z,1.00
2022-11-01T16:49:19.195Z,1.00
2022-11-01T16:51:48.430Z,1.00
2022-11-01T16:54:16.274Z,1.00
2022-11-01T16:56:45.755Z,1.00
2022-11-01T16:59:23.092Z,1.00
2022-11-01T17:01:52.246Z,1.00
2022-11-01T17:04:20.395Z,1.00
2022-11-01T17:06:49.654Z,1.00
2022-11-01T17:09:18.411Z,1.00
2022-11-01T17:11:51.023Z,1.00
2022-11-01T17:14:19.654Z,1.00
2022-11-01T17:16:48.207Z,1.00
2022-11-01T17:19:19.007Z,1.00
2022-11-01T17:21:47.125Z,1.00
2022-11-01T17:24:19.243Z,1.00
2022-11-01T17:26:47.145Z,1.00
2022-11-01T17:29:15.516Z,1.00
2022-11-01T17:31:43.318Z,2.00
2022-11-01T17:34:11.124Z,49.20
2022-11-01T17:36:39.378Z,54.30
2022-11-01T17:39:09.867Z,88.20
2022-11-01T17:41:39.041Z,99.90
2022-11-01T17:44:06.934Z,99.90
2022-11-01T17:46:34.766Z,99.90
2022-11-01T17:49:02.611Z,99.90
2022-11-01T17:51:30.454Z,99.90
2022-11-01T17:53:58.704Z,99.90
2022-11-01T17:56:26.519Z,99.90
2022-11-01T17:58:55.749Z,99.90
2022-11-01T18:01:23.906Z,99.90
2022-11-01T18:03:51.863Z,99.90
2022-11-01T18:06:19.742Z,1.00
2022-11-01T18:08:48.445Z,1.00
2022-11-01T18:11:29.890Z,1.00
2022-11-01T18:14:03.955Z,1.00
2022-11-01T18:16:39.804Z,1.00
2022-11-01T18:19:19.196Z,1.00
2022-11-01T18:21:52.331Z,1.00
2022-11-01T18:24:22.710Z,1.00
2022-11-01T18:26:51.292Z,1.00
2022-11-01T18:29:21.661Z,1.00
2022-11-01T18:31:52.407Z,1.00
2022-11-01T18:34:25.211Z,1.00
2022-11-01T18:36:56.533Z,1.00
2022-11-01T18:39:30.828Z,1.00
2022-11-01T18:41:59.827Z,1.00
2022-11-01T18:44:29.056Z,1.00
2022-11-01T18:46:58.968Z,1.00
2022-11-01T18:49:27.712Z,1.00
2022-11-01T18:51:55.745Z,1.00
2022-11-01T18:54:26.034Z,1.00
2022-11-01T18:56:54.811Z,1.00
2022-11-01T18:59:34.915Z,1.00
2022-11-01T19:02:04.054Z,1.00
2022-11-01T19:04:35.599Z,1.00
2022-11-01T19:07:11.411Z,1.00
2022-11-01T19:09:39.792Z,1.00
2022-11-01T19:12:14.397Z,1.00
2022-11-01T19:14:44.171Z,1.00
2022-11-01T19:17:18.646Z,1.00
2022-11-01T19:19:47.620Z,1.00
2022-11-01T19:22:36.713Z,1.00
2022-11-01T19:25:14.618Z,1.00
2022-11-01T19:27:43.141Z,1.00
2022-11-01T19:30:21.079Z,1.00
2022-11-01T19:32:49.559Z,1.00
2022-11-01T19:35:21.900Z,1.00
2022-11-01T19:37:50.921Z,1.00
2022-11-01T19:40:27.527Z,1.00
2022-11-01T19:42:55.871Z,1.00
2022-11-01T19:45:28.979Z,1.00
2022-11-01T19:47:58.026Z,1.00
2022-11-01T19:50:27.812Z,1.00
2022-11-01T19:52:56.841Z,1.00
2022-11-01T19:55:43.801Z,19.40
2022-11-01T19:58:24.899Z,1.00
2022-11-01T20:01:03.125Z,25.70
2022-11-01T20:03:34.045Z,1.00
2022-11-01T20:06:01.878Z,1.00
2022-11-01T20:08:32.726Z,1.00
2022-11-01T20:11:00.605Z,1.00
2022-11-01T20:13:28.437Z,1.00
2022-11-01T20:15:57.634Z,1.00
2022-11-01T20:18:25.455Z,35.30
2022-11-01T20:20:53.974Z,10.60
2022-11-01T20:23:29.015Z,47.40
2022-11-01T20:25:56.838Z,8.10
2022-11-01T20:28:24.735Z,36.30
2022-11-01T20:30:52.584Z,25.10
2022-11-01T20:33:21.768Z,36.40
2022-11-01T20:35:49.853Z,25.60
2022-11-01T20:38:17.707Z,17.40
2022-11-01T20:40:46.086Z,26.20
2022-11-01T20:43:13.898Z,17.70
2022-11-01T20:45:41.825Z,15.10
2022-11-01T20:48:09.708Z,58.30
2022-11-01T20:50:39.072Z,46.90
2022-11-01T20:53:07.288Z,96.20
2022-11-01T20:55:35.136Z,99.90
2022-11-01T20:58:03.873Z,92.90
2022-11-01T21:00:32.233Z,99.90
2022-11-01T21:03:02.134Z,99.90
2022-11-01T21:05:31.115Z,99.90
2022-11-01T21:08:02.083Z,99.90
2022-11-01T21:10:31.696Z,99.90
2022-11-01T21:13:01.468Z,99.90
2022-11-01T21:15:35.020Z,99.90
2022-11-01T21:18:22.945Z,99.90
2022-11-01T21:20:50.803Z,99.90
2022-11-01T21:23:24.785Z,99.90
2022-11-01T21:25:53.679Z,1.00
2022-11-01T21:28:25.970Z,1.00
2022-11-01T21:30:53.954Z,1.00
2022-11-01T21:33:28.891Z,1.00
2022-11-01T21:35:56.701Z,54.30
2022-11-01T21:38:42.215Z,99.90
2022-11-01T21:41:19.742Z,99.90
2022-11-01T21:43:47.535Z,1.00
2022-11-01T21:46:16.393Z,1.00
2022-11-01T21:48:44.205Z,1.00
2022-11-01T21:51:12.031Z,1.00
2022-11-01T21:53:39.902Z,99.90
2022-11-01T21:56:08.017Z,99.90
2022-11-01T21:58:37.210Z,1.00
2022-11-01T22:01:05.111Z,1.00
2022-11-01T22:03:32.989Z,1.00
2022-11-01T22:06:00.831Z,73.90
2022-11-01T22:08:28.668Z,2.80
2022-11-01T22:10:56.515Z,99.90
2022-11-01T22:13:24.307Z,99.90
2022-11-01T22:15:53.519Z,42.90
2022-11-01T22:18:25.093Z,55.30
2022-11-01T22:20:53.239Z,99.90
2022-11-01T22:23:21.089Z,1.00
2022-11-01T22:25:48.941Z,99.90
2022-11-01T22:28:16.737Z,99.90
2022-11-01T22:30:44.577Z,5.40
2022-11-01T22:33:13.786Z,18.60
2022-11-01T22:35:41.627Z,1.00
2022-11-01T22:38:13.536Z,3.30
2022-11-01T22:40:41.343Z,99.90
2022-11-01T22:43:15.281Z,99.90
2022-11-01T22:45:43.130Z,99.90
2022-11-01T22:48:15.255Z,99.90
2022-11-01T22:50:44.623Z,99.90
2022-11-01T22:53:13.171Z,99.90
2022-11-01T22:55:42.857Z,99.90
2022-11-01T22:58:23.231Z,43.30
2022-11-01T23:00:51.222Z,5.50
2022-11-01T23:03:21.610Z,56.90
2022-11-01T23:05:52.512Z,99.90
2022-11-01T23:08:24.457Z,99.90
2022-11-01T23:10:52.786Z,1.00
2022-11-01T23:13:41.226Z,1.00
2022-11-01T23:16:21.559Z,1.00
2022-11-01T23:18:49.745Z,1.00
2022-11-01T23:21:19.525Z,1.00
2022-11-01T23:23:48.205Z,1.00
2022-11-01T23:26:16.936Z,99.90
2022-11-01T23:28:45.864Z,99.90
2022-11-01T23:31:14.310Z,1.00
2022-11-01T23:33:42.925Z,1.00
2022-11-01T23:36:14.695Z,99.90
2022-11-01T23:38:46.998Z,99.90
2022-11-01T23:41:19.112Z,42.70
2022-11-01T23:43:46.957Z,1.00
2022-11-01T23:46:14.960Z,1.00
2022-11-01T23:48:44.515Z,99.90
2022-11-01T23:51:15.405Z,99.90
2022-11-01T23:53:45.296Z,99.90
2022-11-01T23:56:13.891Z,93.70
2022-11-01T23:58:41.789Z,99.90
